createdAt,value
2019-01-25T00:00:44.459Z,16.00
2019-01-25T00:01:44.461Z,16.00
2019-01-25T00:02:44.446Z,16.00
2019-01-25T00:03:44.477Z,16.00
2019-01-25T00:04:44.506Z,16.00
2019-01-25T00:05:44.514Z,16.00
2019-01-25T00:06:44.418Z,16.00
2019-01-25T00:07:44.505Z,16.00
2019-01-25T00:08:44.514Z,16.00
2019-01-25T00:09:44.483Z,18.30
2019-01-25T00:10:44.480Z,18.30
2019-01-25T00:11:44.500Z,18.30
2019-01-25T00:12:44.550Z,18.30
2019-01-25T00:13:44.537Z,18.30
2019-01-25T00:14:44.484Z,18.30
2019-01-25T00:15:44.527Z,18.30
2019-01-25T00:16:44.473Z,18.30
2019-01-25T00:17:44.484Z,18.30
2019-01-25T00:18:44.426Z,18.30
2019-01-25T00:19:44.524Z,18.99
2019-01-25T00:20:44.458Z,18.99
2019-01-25T00:21:44.524Z,18.99
2019-01-25T00:22:44.454Z,18.99
2019-01-25T00:23:44.568Z,18.99
2019-01-25T00:24:44.462Z,18.99
2019-01-25T00:25:44.466Z,18.99
2019-01-25T00:26:44.529Z,18.99
2019-01-25T00:27:44.458Z,18.99
2019-01-25T00:28:44.587Z,18.99
2019-01-25T00:29:44.472Z,17.80
2019-01-25T00:30:44.531Z,17.80
2019-01-25T00:31:44.474Z,17.80
2019-01-25T00:32:44.530Z,17.80
2019-01-25T00:33:44.483Z,17.80
2019-01-25T00:34:44.538Z,17.80
2019-01-25T00:35:44.537Z,17.80
2019-01-25T00:36:44.476Z,17.80
2019-01-25T00:37:44.540Z,17.80
2019-01-25T00:38:44.475Z,17.80
2019-01-25T00:39:44.445Z,18.30
2019-01-25T00:40:44.447Z,18.30
2019-01-25T00:41:44.523Z,18.30
2019-01-25T00:42:44.491Z,18.30
2019-01-25T00:43:44.450Z,18.30
2019-01-25T00:44:44.508Z,18.30
2019-01-25T00:45:44.446Z,18.30
2019-01-25T00:46:44.428Z,18.30
2019-01-25T00:47:44.511Z,18.30
2019-01-25T00:48:44.455Z,18.30
2019-01-25T00:49:44.570Z,17.50
2019-01-25T00:50:44.479Z,17.50
2019-01-25T00:51:44.549Z,17.50
2019-01-25T00:52:44.552Z,17.50
2019-01-25T00:53:44.547Z,17.50
2019-01-25T00:54:44.486Z,17.50
2019-01-25T00:55:44.548Z,17.50
2019-01-25T00:56:44.484Z,17.50
2019-01-25T00:57:44.489Z,17.50
2019-01-25T00:58:44.557Z,17.50
2019-01-25T00:59:44.510Z,17.10
2019-01-25T01:00:44.454Z,17.10
2019-01-25T01:01:44.551Z,17.10
2019-01-25T01:02:44.575Z,17.10
2019-01-25T01:03:44.582Z,17.10
2019-01-25T01:04:44.513Z,17.10
2019-01-25T01:05:44.509Z,17.10
2019-01-25T01:06:44.463Z,17.10
2019-01-25T01:07:44.519Z,17.10
2019-01-25T01:08:44.498Z,17.10
2019-01-25T01:09:44.490Z,15.90
2019-01-25T01:10:44.563Z,15.90
2019-01-25T01:11:44.500Z,15.90
2019-01-25T01:12:44.560Z,15.90
2019-01-25T01:13:44.494Z,15.90
2019-01-25T01:14:44.565Z,15.90
2019-01-25T01:15:44.494Z,15.90
2019-01-25T01:16:44.564Z,15.90
2019-01-25T01:17:44.501Z,15.90
2019-01-25T01:18:44.574Z,15.90
2019-01-25T01:19:44.501Z,18.70
2019-01-25T01:20:44.566Z,18.70
2019-01-25T01:21:44.503Z,18.70
2019-01-25T01:22:44.455Z,18.70
2019-01-25T01:23:44.511Z,18.70
2019-01-25T01:24:44.572Z,18.70
2019-01-25T01:25:44.504Z,18.70
2019-01-25T01:26:44.578Z,18.70
2019-01-25T01:27:44.558Z,18.70
2019-01-25T01:28:44.574Z,18.70
2019-01-25T01:29:44.588Z,16.30
2019-01-25T01:30:44.541Z,16.30
2019-01-25T01:31:44.603Z,16.30
2019-01-25T01:32:44.659Z,16.30
2019-01-25T01:33:44.579Z,16.30
2019-01-25T01:34:44.483Z,16.30
2019-01-25T01:35:44.523Z,16.30
2019-01-25T01:36:44.535Z,16.30
2019-01-25T01:37:44.476Z,16.30
2019-01-25T01:38:44.599Z,16.30
2019-01-25T01:39:44.596Z,18.40
2019-01-25T01:40:44.530Z,18.40
2019-01-25T01:41:44.486Z,18.40
2019-01-25T01:42:44.542Z,18.40
2019-01-25T01:43:44.600Z,18.40
2019-01-25T01:44:44.550Z,18.40
2019-01-25T01:45:44.603Z,18.40
2019-01-25T01:46:44.588Z,18.40
2019-01-25T01:47:44.602Z,18.40
2019-01-25T01:48:44.598Z,18.40
2019-01-25T01:49:44.473Z,17.40
2019-01-25T01:50:44.555Z,17.40
2019-01-25T01:51:44.582Z,17.40
2019-01-25T01:52:44.512Z,17.40
2019-01-25T01:53:44.586Z,17.40
2019-01-25T01:54:44.478Z,17.40
2019-01-25T01:55:44.587Z,17.40
2019-01-25T01:56:44.477Z,17.40
2019-01-25T01:57:44.563Z,17.40
2019-01-25T01:58:44.520Z,17.40
2019-01-25T01:59:44.613Z,18.60
2019-01-25T02:00:44.534Z,18.60
2019-01-25T02:01:44.606Z,18.60
2019-01-25T02:02:44.619Z,18.60
2019-01-25T02:03:44.611Z,18.60
2019-01-25T02:04:44.548Z,18.60
2019-01-25T02:05:44.569Z,18.60
2019-01-25T02:06:44.540Z,18.60
2019-01-25T02:07:44.555Z,18.60
2019-01-25T02:08:44.616Z,18.60
2019-01-25T02:09:44.631Z,19.50
2019-01-25T02:10:44.575Z,19.50
2019-01-25T02:11:44.546Z,19.50
2019-01-25T02:12:44.555Z,19.50
2019-01-25T02:13:44.616Z,19.50
2019-01-25T02:14:44.544Z,19.50
2019-01-25T02:15:44.625Z,19.50
2019-01-25T02:16:44.619Z,19.50
2019-01-25T02:17:44.561Z,19.50
2019-01-25T02:18:44.545Z,19.50
2019-01-25T02:19:44.567Z,17.60
2019-01-25T02:20:44.520Z,17.60
2019-01-25T02:21:44.553Z,17.60
2019-01-25T02:22:44.584Z,17.60
2019-01-25T02:23:44.580Z,17.60
2019-01-25T02:24:44.627Z,17.60
2019-01-25T02:25:44.567Z,17.60
2019-01-25T02:26:44.553Z,17.60
2019-01-25T02:27:44.562Z,17.60
2019-01-25T02:28:44.554Z,17.60
2019-01-25T02:29:44.570Z,15.10
2019-01-25T02:30:44.522Z,15.10
2019-01-25T02:31:44.571Z,15.10
2019-01-25T02:32:44.634Z,15.10
2019-01-25T02:33:44.584Z,15.10
2019-01-25T02:34:44.559Z,15.10
2019-01-25T02:35:44.585Z,15.10
2019-01-25T02:36:44.636Z,15.10
2019-01-25T02:37:44.602Z,15.10
2019-01-25T02:38:44.642Z,15.10
2019-01-25T02:39:44.574Z,12.20
2019-01-25T02:40:44.622Z,12.20
2019-01-25T02:41:44.615Z,12.20
2019-01-25T02:42:44.551Z,12.20
2019-01-25T02:43:44.579Z,12.20
2019-01-25T02:44:44.557Z,12.20
2019-01-25T02:45:44.623Z,12.20
2019-01-25T02:46:44.626Z,12.20
2019-01-25T02:47:44.530Z,12.20
2019-01-25T02:48:44.562Z,12.20
2019-01-25T02:49:44.588Z,15.80
2019-01-25T02:50:44.581Z,15.80
2019-01-25T02:51:44.575Z,15.80
2019-01-25T02:52:44.574Z,15.80
2019-01-25T02:53:44.580Z,15.80
2019-01-25T02:54:44.587Z,15.80
2019-01-25T02:55:44.651Z,15.80
2019-01-25T02:56:44.595Z,15.80
2019-01-25T02:57:44.644Z,15.80
2019-01-25T02:58:44.652Z,15.80
2019-01-25T02:59:44.618Z,13.20
2019-01-25T03:00:44.654Z,13.20
2019-01-25T03:01:44.592Z,13.20
2019-01-25T03:02:44.578Z,13.20
2019-01-25T03:03:44.642Z,13.20
2019-01-25T03:04:44.708Z,13.20
2019-01-25T03:05:44.593Z,13.20
2019-01-25T03:06:44.614Z,13.20
2019-01-25T03:07:44.674Z,13.20
2019-01-25T03:08:44.665Z,13.20
2019-01-25T03:09:44.585Z,11.50
2019-01-25T03:10:47.137Z,11.50
2019-01-25T03:11:44.583Z,11.50
2019-01-25T03:12:44.645Z,11.50
2019-01-25T03:13:44.583Z,11.50
2019-01-25T03:14:44.581Z,11.50
2019-01-25T03:15:44.646Z,11.50
2019-01-25T03:16:44.578Z,11.50
2019-01-25T03:17:44.649Z,11.50
2019-01-25T03:18:44.588Z,11.50
2019-01-25T03:19:44.664Z,13.20
2019-01-25T03:20:44.684Z,13.20
2019-01-25T03:21:44.612Z,13.20
2019-01-25T03:22:44.680Z,13.20
2019-01-25T03:23:44.619Z,13.20
2019-01-25T03:24:44.557Z,13.20
2019-01-25T03:25:44.631Z,13.20
2019-01-25T03:26:44.635Z,13.20
2019-01-25T03:27:44.592Z,13.20
2019-01-25T03:28:44.676Z,13.20
2019-01-25T03:29:44.587Z,14.80
2019-01-25T03:30:44.661Z,14.80
2019-01-25T03:31:44.600Z,14.80
2019-01-25T03:32:44.669Z,14.80
2019-01-25T03:33:44.594Z,14.80
2019-01-25T03:34:44.593Z,14.80
2019-01-25T03:35:44.665Z,14.80
2019-01-25T03:36:44.661Z,14.80
2019-01-25T03:37:44.599Z,14.80
2019-01-25T03:38:44.665Z,14.80
2019-01-25T03:39:44.669Z,13.50
2019-01-25T03:40:44.602Z,13.50
2019-01-25T03:41:44.670Z,13.50
2019-01-25T03:42:44.596Z,13.50
2019-01-25T03:43:44.668Z,13.50
2019-01-25T03:44:44.608Z,13.50
2019-01-25T03:45:44.673Z,13.50
2019-01-25T03:46:44.669Z,13.50
2019-01-25T03:47:44.618Z,13.50
2019-01-25T03:48:44.671Z,13.50
2019-01-25T03:49:44.608Z,15.00
2019-01-25T03:50:49.077Z,15.00
2019-01-25T03:51:44.672Z,15.00
2019-01-25T03:52:44.638Z,15.00
2019-01-25T03:53:44.677Z,15.00
2019-01-25T03:54:44.616Z,15.00
2019-01-25T03:55:44.614Z,15.00
2019-01-25T03:56:44.618Z,15.00
2019-01-25T03:57:44.622Z,15.00
2019-01-25T03:58:44.685Z,15.00
2019-01-25T03:59:44.679Z,12.40
2019-01-25T04:00:44.614Z,12.40
2019-01-25T04:01:44.679Z,12.40
2019-01-25T04:02:44.618Z,12.40
2019-01-25T04:03:44.681Z,12.40
2019-01-25T04:04:44.687Z,12.40
2019-01-25T04:05:44.690Z,12.40
2019-01-25T04:06:44.620Z,12.40
2019-01-25T04:07:44.688Z,12.40
2019-01-25T04:08:44.632Z,12.40
2019-01-25T04:09:44.705Z,12.80
2019-01-25T04:10:44.709Z,12.80
2019-01-25T04:11:44.702Z,12.80
2019-01-25T04:12:44.827Z,12.80
2019-01-25T04:13:44.706Z,12.80
2019-01-25T04:14:44.662Z,12.80
2019-01-25T04:15:44.672Z,12.80
2019-01-25T04:16:44.631Z,12.80
2019-01-25T04:17:44.646Z,12.80
2019-01-25T04:18:44.644Z,12.80
2019-01-25T04:19:44.645Z,11.50
2019-01-25T04:20:44.714Z,11.50
2019-01-25T04:21:44.707Z,11.50
2019-01-25T04:22:44.712Z,11.50
2019-01-25T04:23:44.716Z,11.50
2019-01-25T04:24:44.656Z,11.50
2019-01-25T04:25:44.695Z,11.50
2019-01-25T04:26:44.637Z,11.50
2019-01-25T04:27:44.722Z,11.50
2019-01-25T04:28:44.644Z,11.50
2019-01-25T04:29:44.657Z,13.60
2019-01-25T04:30:44.791Z,13.60
2019-01-25T04:31:44.661Z,13.60
2019-01-25T04:32:44.605Z,13.60
2019-01-25T04:33:44.646Z,13.60
2019-01-25T04:34:44.690Z,13.60
2019-01-25T04:35:44.683Z,13.60
2019-01-25T04:36:44.656Z,13.60
2019-01-25T04:37:44.648Z,13.60
2019-01-25T04:38:44.674Z,13.60
2019-01-25T04:39:44.707Z,12.10
2019-01-25T04:40:44.645Z,12.10
2019-01-25T04:41:44.715Z,12.10
2019-01-25T04:42:44.643Z,12.10
2019-01-25T04:43:44.719Z,12.10
2019-01-25T04:44:44.644Z,12.10
2019-01-25T04:45:44.646Z,12.10
2019-01-25T04:46:44.717Z,12.10
2019-01-25T04:47:44.653Z,12.10
2019-01-25T04:48:44.713Z,12.10
2019-01-25T04:49:44.670Z,12.00
2019-01-25T04:50:44.650Z,12.00
2019-01-25T04:51:44.607Z,12.00
2019-01-25T04:52:44.623Z,12.00
2019-01-25T04:53:44.624Z,12.00
2019-01-25T04:54:44.716Z,12.00
2019-01-25T04:55:44.594Z,12.00
2019-01-25T04:56:44.603Z,12.00
2019-01-25T04:57:44.704Z,12.00
2019-01-25T04:58:44.605Z,12.00
2019-01-25T04:59:44.747Z,13.20
2019-01-25T05:00:44.741Z,13.20
2019-01-25T05:01:44.700Z,13.20
2019-01-25T05:02:44.743Z,13.20
2019-01-25T05:03:44.752Z,13.20
2019-01-25T05:04:44.754Z,13.20
2019-01-25T05:05:44.744Z,13.20
2019-01-25T05:06:44.679Z,13.20
2019-01-25T05:07:44.670Z,13.20
2019-01-25T05:08:44.747Z,13.20
2019-01-25T05:09:44.663Z,12.50
2019-01-25T05:10:44.661Z,12.50
2019-01-25T05:11:44.662Z,12.50
2019-01-25T05:12:48.973Z,12.50
2019-01-25T05:13:44.664Z,12.50
2019-01-25T05:14:44.731Z,12.50
2019-01-25T05:15:44.741Z,12.50
2019-01-25T05:16:44.672Z,12.50
2019-01-25T05:17:44.736Z,12.50
2019-01-25T05:18:44.793Z,12.50
2019-01-25T05:19:44.741Z,15.30
2019-01-25T05:20:44.666Z,15.30
2019-01-25T05:21:44.674Z,15.30
2019-01-25T05:22:44.667Z,15.30
2019-01-25T05:23:44.735Z,15.30
2019-01-25T05:24:44.674Z,15.30
2019-01-25T05:25:44.747Z,15.30
2019-01-25T05:26:44.668Z,15.30
2019-01-25T05:27:44.744Z,15.30
2019-01-25T05:28:44.676Z,15.30
2019-01-25T05:29:44.750Z,15.30
2019-01-25T05:30:44.627Z,12.00
2019-01-25T05:31:44.678Z,12.00
2019-01-25T05:32:44.678Z,12.00
2019-01-25T05:33:44.672Z,12.00
2019-01-25T05:34:44.647Z,12.00
2019-01-25T05:35:44.697Z,12.00
2019-01-25T05:36:44.717Z,12.00
2019-01-25T05:37:44.632Z,12.00
2019-01-25T05:38:44.671Z,12.00
2019-01-25T05:39:44.751Z,12.00
2019-01-25T05:40:44.751Z,11.90
2019-01-25T05:41:44.649Z,11.90
2019-01-25T05:42:44.694Z,11.90
2019-01-25T05:43:44.764Z,11.90
2019-01-25T05:44:44.695Z,11.90
2019-01-25T05:45:44.767Z,11.90
2019-01-25T05:46:44.730Z,11.90
2019-01-25T05:47:44.712Z,11.90
2019-01-25T05:48:44.699Z,11.90
2019-01-25T05:49:44.792Z,11.90
2019-01-25T05:50:44.686Z,13.30
2019-01-25T05:51:44.693Z,13.30
2019-01-25T05:52:44.761Z,13.30
2019-01-25T05:53:44.686Z,13.30
2019-01-25T05:54:44.758Z,13.30
2019-01-25T05:55:44.693Z,13.30
2019-01-25T05:56:44.763Z,13.30
2019-01-25T05:57:44.697Z,13.30
2019-01-25T05:58:44.762Z,13.30
2019-01-25T05:59:44.694Z,13.30
2019-01-25T06:00:44.712Z,12.00
2019-01-25T06:01:44.686Z,12.00
2019-01-25T06:02:44.767Z,12.00
2019-01-25T06:03:44.751Z,12.00
2019-01-25T06:04:44.644Z,12.00
2019-01-25T06:05:44.757Z,12.00
2019-01-25T06:06:44.668Z,12.00
2019-01-25T06:07:44.720Z,12.00
2019-01-25T06:08:44.773Z,12.00
2019-01-25T06:09:44.651Z,12.00
2019-01-25T06:10:44.726Z,13.30
2019-01-25T06:11:44.795Z,13.30
2019-01-25T06:12:44.815Z,13.30
2019-01-25T06:13:44.813Z,13.30
2019-01-25T06:14:44.803Z,13.30
2019-01-25T06:15:44.816Z,13.30
2019-01-25T06:16:44.837Z,13.30
2019-01-25T06:17:44.713Z,13.30
2019-01-25T06:18:44.714Z,13.30
2019-01-25T06:19:44.779Z,13.30
2019-01-25T06:20:44.735Z,12.40
2019-01-25T06:21:44.795Z,12.40
2019-01-25T06:22:44.735Z,12.40
2019-01-25T06:23:44.677Z,12.40
2019-01-25T06:24:44.720Z,12.40
2019-01-25T06:25:44.755Z,12.40
2019-01-25T06:26:44.734Z,12.40
2019-01-25T06:27:44.732Z,12.40
2019-01-25T06:28:44.729Z,12.40
2019-01-25T06:29:44.819Z,12.40
2019-01-25T06:30:44.684Z,13.20
2019-01-25T06:31:44.800Z,13.20
2019-01-25T06:32:44.814Z,13.20
2019-01-25T06:33:44.744Z,13.20
2019-01-25T06:34:44.755Z,13.20
2019-01-25T06:35:44.759Z,13.20
2019-01-25T06:36:44.802Z,13.20
2019-01-25T06:37:44.809Z,13.20
2019-01-25T06:38:44.749Z,13.20
2019-01-25T06:39:44.816Z,13.20
2019-01-25T06:40:44.799Z,12.80
2019-01-25T06:41:44.744Z,12.80
2019-01-25T06:42:44.805Z,12.80
2019-01-25T06:43:44.730Z,12.80
2019-01-25T06:44:44.735Z,12.80
2019-01-25T06:45:44.808Z,12.80
2019-01-25T06:46:44.756Z,12.80
2019-01-25T06:47:44.764Z,12.80
2019-01-25T06:48:44.734Z,12.80
2019-01-25T06:49:44.750Z,12.80
2019-01-25T06:50:44.739Z,13.50
2019-01-25T06:51:44.812Z,13.50
2019-01-25T06:52:44.812Z,13.50
2019-01-25T06:53:44.832Z,13.50
2019-01-25T06:54:44.817Z,13.50
2019-01-25T06:55:44.751Z,13.50
2019-01-25T06:56:44.813Z,13.50
2019-01-25T06:57:44.820Z,13.50
2019-01-25T06:58:44.750Z,13.50
2019-01-25T06:59:44.759Z,13.50
2019-01-25T07:00:44.739Z,15.20
2019-01-25T07:01:44.806Z,15.20
2019-01-25T07:02:44.789Z,15.20
2019-01-25T07:03:44.807Z,15.20
2019-01-25T07:04:44.736Z,15.20
2019-01-25T07:05:44.737Z,15.20
2019-01-25T07:06:44.813Z,15.20
2019-01-25T07:07:44.748Z,15.20
2019-01-25T07:08:44.813Z,15.20
2019-01-25T07:09:44.738Z,15.20
2019-01-25T07:10:44.734Z,13.10
2019-01-25T07:11:51.262Z,13.10
2019-01-25T07:12:44.840Z,13.10
2019-01-25T07:13:44.764Z,13.10
2019-01-25T07:14:44.775Z,13.10
2019-01-25T07:15:44.848Z,13.10
2019-01-25T07:16:44.786Z,13.10
2019-01-25T07:17:44.793Z,13.10
2019-01-25T07:18:44.882Z,13.10
2019-01-25T07:19:44.845Z,13.10
2019-01-25T07:20:44.840Z,15.50
2019-01-25T07:21:44.742Z,15.50
2019-01-25T07:22:44.839Z,15.50
2019-01-25T07:23:44.719Z,15.50
2019-01-25T07:24:44.840Z,15.50
2019-01-25T07:25:44.775Z,15.50
2019-01-25T07:26:44.806Z,15.50
2019-01-25T07:27:44.762Z,15.50
2019-01-25T07:28:44.849Z,15.50
2019-01-25T07:29:44.767Z,15.50
2019-01-25T07:30:44.870Z,14.90
2019-01-25T07:31:46.279Z,14.90
2019-01-25T07:32:44.844Z,14.90
2019-01-25T07:33:44.836Z,14.90
2019-01-25T07:34:44.828Z,14.90
2019-01-25T07:35:44.855Z,14.90
2019-01-25T07:36:44.732Z,14.90
2019-01-25T07:37:44.929Z,14.90
2019-01-25T07:38:44.804Z,14.90
2019-01-25T07:39:44.789Z,14.90
2019-01-25T07:40:44.845Z,16.99
2019-01-25T07:41:44.741Z,16.99
2019-01-25T07:42:44.841Z,16.99
2019-01-25T07:43:44.857Z,16.99
2019-01-25T07:44:44.848Z,16.99
2019-01-25T07:45:44.849Z,16.99
2019-01-25T07:46:44.855Z,16.99
2019-01-25T07:47:44.781Z,16.99
2019-01-25T07:48:44.789Z,16.99
2019-01-25T07:49:44.912Z,16.99
2019-01-25T07:50:44.872Z,12.40
2019-01-25T07:51:44.775Z,12.40
2019-01-25T07:52:44.863Z,12.40
2019-01-25T07:53:44.843Z,12.40
2019-01-25T07:54:44.778Z,12.40
2019-01-25T07:55:44.857Z,12.40
2019-01-25T07:56:44.830Z,12.40
2019-01-25T07:57:44.846Z,12.40
2019-01-25T07:58:44.803Z,12.40
2019-01-25T07:59:44.854Z,12.40
2019-01-25T08:00:44.847Z,15.10
2019-01-25T08:01:44.850Z,15.10
2019-01-25T08:02:44.818Z,15.10
2019-01-25T08:03:44.890Z,15.10
2019-01-25T08:04:44.789Z,15.10
2019-01-25T08:05:44.853Z,15.10
2019-01-25T08:06:44.794Z,15.10
2019-01-25T08:07:44.872Z,15.10
2019-01-25T08:08:44.782Z,15.10
2019-01-25T08:09:44.814Z,15.10
2019-01-25T08:10:44.878Z,10.80
2019-01-25T08:11:44.873Z,10.80
2019-01-25T08:12:44.922Z,10.80
2019-01-25T08:13:45.118Z,10.80
2019-01-25T08:14:44.873Z,10.80
2019-01-25T08:15:44.906Z,10.80
2019-01-25T08:16:44.797Z,10.80
2019-01-25T08:17:44.880Z,10.80
2019-01-25T08:18:44.875Z,10.80
2019-01-25T08:19:44.807Z,10.80
2019-01-25T08:20:44.761Z,11.90
2019-01-25T08:21:44.860Z,11.90
2019-01-25T08:22:44.932Z,11.90
2019-01-25T08:23:44.834Z,11.90
2019-01-25T08:24:44.806Z,11.90
2019-01-25T08:25:44.781Z,11.90
2019-01-25T08:26:44.794Z,11.90
2019-01-25T08:27:44.925Z,11.90
2019-01-25T08:28:44.863Z,11.90
2019-01-25T08:29:44.919Z,11.90
2019-01-25T08:30:44.817Z,8.70
2019-01-25T08:31:44.819Z,8.70
2019-01-25T08:32:44.882Z,8.70
2019-01-25T08:33:44.836Z,8.70
2019-01-25T08:34:44.917Z,8.70
2019-01-25T08:35:44.907Z,8.70
2019-01-25T08:36:44.839Z,8.70
2019-01-25T08:37:44.853Z,8.70
2019-01-25T08:38:44.813Z,8.70
2019-01-25T08:39:44.926Z,8.70
2019-01-25T08:40:44.878Z,9.90
2019-01-25T08:41:44.786Z,9.90
2019-01-25T08:42:44.922Z,9.90
2019-01-25T08:43:44.895Z,9.90
2019-01-25T08:44:44.876Z,9.90
2019-01-25T08:45:44.845Z,9.90
2019-01-25T08:46:44.805Z,9.90
2019-01-25T08:47:44.879Z,9.90
2019-01-25T08:48:44.900Z,9.90
2019-01-25T08:49:44.884Z,9.90
2019-01-25T08:50:44.787Z,10.50
2019-01-25T08:51:44.868Z,10.50
2019-01-25T08:52:44.840Z,10.50
2019-01-25T08:53:44.858Z,10.50
2019-01-25T08:54:44.881Z,10.50
2019-01-25T08:55:44.764Z,10.50
2019-01-25T08:56:44.829Z,10.50
2019-01-25T08:57:44.766Z,10.50
2019-01-25T08:58:44.892Z,10.50
2019-01-25T08:59:45.753Z,10.50
2019-01-25T09:00:44.888Z,8.70
2019-01-25T09:01:44.890Z,8.70
2019-01-25T09:03:44.815Z,8.70
2019-01-25T09:04:44.886Z,8.70
2019-01-25T09:05:44.887Z,8.70
2019-01-25T09:06:44.828Z,8.70
2019-01-25T09:07:44.890Z,8.70
2019-01-25T09:08:44.821Z,8.70
2019-01-25T09:09:44.896Z,8.70
2019-01-25T09:10:44.821Z,9.00
2019-01-25T09:11:44.897Z,9.00
2019-01-25T09:12:44.824Z,9.00
2019-01-25T09:13:44.820Z,9.00
2019-01-25T09:14:44.819Z,9.00
2019-01-25T09:15:44.897Z,9.00
2019-01-25T09:16:44.901Z,9.00
2019-01-25T09:17:44.850Z,9.00
2019-01-25T09:18:44.821Z,9.00
2019-01-25T09:19:44.831Z,9.00
2019-01-25T09:20:44.830Z,7.50
2019-01-25T09:21:44.914Z,7.50
2019-01-25T09:22:44.902Z,7.50
2019-01-25T09:23:44.903Z,7.50
2019-01-25T09:24:44.905Z,7.50
2019-01-25T09:25:44.830Z,7.50
2019-01-25T09:26:44.904Z,7.50
2019-01-25T09:27:44.901Z,7.50
2019-01-25T09:28:44.873Z,7.50
2019-01-25T09:29:44.848Z,7.50
2019-01-25T09:30:44.879Z,10.99
2019-01-25T09:31:44.914Z,10.99
2019-01-25T09:32:44.927Z,10.99
2019-01-25T09:33:44.847Z,10.99
2019-01-25T09:34:44.919Z,10.99
2019-01-25T09:35:44.852Z,10.99
2019-01-25T09:36:44.918Z,10.99
2019-01-25T09:37:44.855Z,10.99
2019-01-25T09:38:44.854Z,10.99
2019-01-25T09:39:44.923Z,10.99
2019-01-25T09:40:44.860Z,9.30
2019-01-25T09:41:44.925Z,9.30
2019-01-25T09:42:44.869Z,9.30
2019-01-25T09:43:44.921Z,9.30
2019-01-25T09:44:44.979Z,9.30
2019-01-25T09:45:44.859Z,9.30
2019-01-25T09:46:44.859Z,9.30
2019-01-25T09:47:44.921Z,9.30
2019-01-25T09:48:44.932Z,9.30
2019-01-25T09:49:44.929Z,9.30
2019-01-25T09:50:44.799Z,8.10
2019-01-25T09:51:44.797Z,8.10
2019-01-25T09:52:44.851Z,8.10
2019-01-25T09:53:44.795Z,8.10
2019-01-25T09:54:44.912Z,8.10
2019-01-25T09:55:44.865Z,8.10
2019-01-25T09:56:44.799Z,8.10
2019-01-25T09:57:44.885Z,8.10
2019-01-25T09:58:44.830Z,8.10
2019-01-25T09:59:44.911Z,8.10
2019-01-25T10:00:44.880Z,7.10
2019-01-25T10:01:44.947Z,7.10
2019-01-25T10:02:44.874Z,7.10
2019-01-25T10:03:44.886Z,7.10
2019-01-25T10:04:44.867Z,7.10
2019-01-25T10:05:44.942Z,7.10
2019-01-25T10:06:44.871Z,7.10
2019-01-25T10:07:44.942Z,7.10
2019-01-25T10:08:44.873Z,7.10
2019-01-25T10:09:44.952Z,7.10
2019-01-25T10:10:44.944Z,9.20
2019-01-25T10:11:44.953Z,9.20
2019-01-25T10:12:44.943Z,9.20
2019-01-25T10:13:44.954Z,9.20
2019-01-25T10:14:44.877Z,9.20
2019-01-25T10:15:44.946Z,9.20
2019-01-25T10:16:44.948Z,9.20
2019-01-25T10:17:44.882Z,9.20
2019-01-25T10:18:44.952Z,9.20
2019-01-25T10:19:44.949Z,9.20
2019-01-25T10:20:44.945Z,7.70
2019-01-25T10:21:44.953Z,7.70
2019-01-25T10:22:44.825Z,7.70
2019-01-25T10:23:44.896Z,7.70
2019-01-25T10:24:44.869Z,7.70
2019-01-25T10:25:44.909Z,7.70
2019-01-25T10:26:44.946Z,7.70
2019-01-25T10:27:44.942Z,7.70
2019-01-25T10:28:44.948Z,7.70
2019-01-25T10:29:44.949Z,7.70
2019-01-25T10:30:44.956Z,10.60
2019-01-25T10:31:44.968Z,10.60
2019-01-25T10:32:44.889Z,10.60
2019-01-25T10:33:44.893Z,10.60
2019-01-25T10:34:44.894Z,10.60
2019-01-25T10:35:44.964Z,10.60
2019-01-25T10:36:44.964Z,10.60
2019-01-25T10:37:44.895Z,10.60
2019-01-25T10:38:44.895Z,10.60
2019-01-25T10:39:44.975Z,10.60
2019-01-25T10:40:44.855Z,9.00
2019-01-25T10:41:44.831Z,9.00
2019-01-25T10:42:52.687Z,9.00
2019-01-25T10:43:44.866Z,9.00
2019-01-25T10:44:44.884Z,9.00
2019-01-25T10:45:44.895Z,9.00
2019-01-25T10:46:44.954Z,9.00
2019-01-25T10:47:44.932Z,9.00
2019-01-25T10:48:45.073Z,9.00
2019-01-25T10:49:44.900Z,9.00
2019-01-25T10:50:44.953Z,8.00
2019-01-25T10:51:44.959Z,8.00
2019-01-25T10:52:44.910Z,8.00
2019-01-25T10:53:44.844Z,8.00
2019-01-25T10:54:44.864Z,8.00
2019-01-25T10:55:44.931Z,8.00
2019-01-25T10:56:44.867Z,8.00
2019-01-25T10:57:44.914Z,8.00
2019-01-25T10:58:44.915Z,8.00
2019-01-25T10:59:44.911Z,8.00
2019-01-25T11:00:44.996Z,10.20
2019-01-25T11:01:44.980Z,10.20
2019-01-25T11:02:44.922Z,10.20
2019-01-25T11:03:46.601Z,10.20
2019-01-25T11:04:44.917Z,10.20
2019-01-25T11:05:44.986Z,10.20
2019-01-25T11:06:44.980Z,10.20
2019-01-25T11:07:44.929Z,10.20
2019-01-25T11:08:44.980Z,10.20
2019-01-25T11:09:44.986Z,10.20
2019-01-25T11:10:44.922Z,10.20
2019-01-25T11:11:44.985Z,10.70
2019-01-25T11:12:44.882Z,10.70
2019-01-25T11:13:44.926Z,10.70
2019-01-25T11:14:44.930Z,10.70
2019-01-25T11:15:45.000Z,10.70
2019-01-25T11:16:44.922Z,10.70
2019-01-25T11:17:44.919Z,10.70
2019-01-25T11:18:44.996Z,10.70
2019-01-25T11:19:44.925Z,10.70
2019-01-25T11:20:44.933Z,10.70
2019-01-25T11:21:44.912Z,10.00
2019-01-25T11:22:44.891Z,10.00
2019-01-25T11:23:44.984Z,10.00
2019-01-25T11:24:44.836Z,10.00
2019-01-25T11:25:44.938Z,10.00
2019-01-25T11:26:44.922Z,10.00
2019-01-25T11:27:44.858Z,10.00
2019-01-25T11:28:44.877Z,10.00
2019-01-25T11:29:44.859Z,10.00
2019-01-25T11:30:44.891Z,10.00
2019-01-25T11:31:44.900Z,10.00
2019-01-25T11:32:44.917Z,10.00
2019-01-25T11:33:44.903Z,10.00
2019-01-25T11:34:44.990Z,10.00
2019-01-25T11:35:44.937Z,10.00
2019-01-25T11:36:44.926Z,10.00
2019-01-25T11:37:44.936Z,10.00
2019-01-25T11:38:44.991Z,10.00
2019-01-25T11:39:49.220Z,10.00
2019-01-25T11:40:44.924Z,10.00
2019-01-25T11:41:44.992Z,7.50
2019-01-25T11:42:44.910Z,7.50
2019-01-25T11:43:44.930Z,7.50
2019-01-25T11:44:44.915Z,7.50
2019-01-25T11:45:44.939Z,7.50
2019-01-25T11:46:44.883Z,7.50
2019-01-25T11:47:44.929Z,7.50
2019-01-25T11:48:45.004Z,7.50
2019-01-25T11:49:44.999Z,7.50
2019-01-25T11:50:44.933Z,7.50
2019-01-25T11:51:45.011Z,9.10
2019-01-25T11:52:44.949Z,9.10
2019-01-25T11:53:44.946Z,9.10
2019-01-25T11:54:45.012Z,9.10
2019-01-25T11:55:44.958Z,9.10
2019-01-25T11:56:45.022Z,9.10
2019-01-25T11:57:44.954Z,9.10
2019-01-25T11:58:45.026Z,9.10
2019-01-25T11:59:44.951Z,9.10
2019-01-25T12:00:45.017Z,9.10
2019-01-25T12:01:45.020Z,9.80
2019-01-25T12:03:45.029Z,9.80
2019-01-25T12:04:45.024Z,9.80
2019-01-25T12:05:44.962Z,9.80
2019-01-25T12:06:45.025Z,9.80
2019-01-25T12:07:44.958Z,9.80
2019-01-25T12:08:45.039Z,9.80
2019-01-25T12:09:44.956Z,9.80
2019-01-25T12:10:44.958Z,9.80
2019-01-25T12:11:44.889Z,9.00
2019-01-25T12:12:44.882Z,9.00
2019-01-25T12:13:45.029Z,9.00
2019-01-25T12:14:44.947Z,9.00
2019-01-25T12:15:44.967Z,9.00
2019-01-25T12:16:44.947Z,9.00
2019-01-25T12:17:44.945Z,9.00
2019-01-25T12:18:44.948Z,9.00
2019-01-25T12:19:44.934Z,9.00
2019-01-25T12:20:44.971Z,9.00
2019-01-25T12:21:44.984Z,9.10
2019-01-25T12:22:44.967Z,9.10
2019-01-25T12:23:45.034Z,9.10
2019-01-25T12:24:45.038Z,9.10
2019-01-25T12:25:45.033Z,9.10
2019-01-25T12:26:45.128Z,9.10
2019-01-25T12:27:45.051Z,9.10
2019-01-25T12:28:44.974Z,9.10
2019-01-25T12:29:45.091Z,9.10
2019-01-25T12:30:45.032Z,9.10
2019-01-25T12:31:44.985Z,9.70
2019-01-25T12:32:44.988Z,9.70
2019-01-25T12:33:45.045Z,9.70
2019-01-25T12:34:45.037Z,9.70
2019-01-25T12:35:44.984Z,9.70
2019-01-25T12:36:45.048Z,9.70
2019-01-25T12:37:44.981Z,9.70
2019-01-25T12:38:44.974Z,9.70
2019-01-25T12:39:44.984Z,9.70
2019-01-25T12:40:44.983Z,9.70
2019-01-25T12:41:45.046Z,9.80
2019-01-25T12:42:44.988Z,9.80
2019-01-25T12:43:45.074Z,9.80
2019-01-25T12:44:45.054Z,9.80
2019-01-25T12:45:44.987Z,9.80
2019-01-25T12:46:44.982Z,9.80
2019-01-25T12:47:45.055Z,9.80
2019-01-25T12:48:44.938Z,9.80
2019-01-25T12:49:44.982Z,9.80
2019-01-25T12:50:48.997Z,9.80
2019-01-25T12:51:45.075Z,10.40
2019-01-25T12:52:45.070Z,10.40
2019-01-25T12:53:45.061Z,10.40
2019-01-25T12:54:44.951Z,10.40
2019-01-25T12:55:45.100Z,10.40
2019-01-25T12:56:45.018Z,10.40
2019-01-25T12:57:45.062Z,10.40
2019-01-25T12:58:45.067Z,10.40
2019-01-25T12:59:45.072Z,10.40
2019-01-25T13:00:45.001Z,10.40